KTCM/TCM METAR and TAF weather

Enter ICAO airport designator
Station Type Date Time Source
KTCM METAR 2020/05/26 06:28 UTC NOAA

KTCM 260628Z 22003KT 10SM SCT010 BKN029 BKN041 OVC055 13/13 A3011 RMK AO2A CIG 029V041 BKN029 V SCT SLP200 $


Station Type Date Time Source
KTCM Decoded METAR 2020/05/26 06:28 UTC NOAA

Tacoma / McChord Air Force Base, WA, United States (KTCM) 47-09N 122-29W 87M
May 26, 2020 - 02:28 AM EDT / 2020.05.26 0628 UTC
Wind: from the SW (220 degrees) at 3 MPH (3 KT):0
Visibility: 10 mile(s):0
Sky conditions: overcast
Temperature: 55 F (13 C)
Dew Point: 55 F (13 C)
Relative Humidity: 100%
Pressure (altimeter): 30.11 in. Hg (1019 hPa)
ob: KTCM 260628Z 22003KT 10SM SCT010 BKN029 BKN041 OVC055 13/13 A3011 RMK AO2A CIG 029V041 BKN029 V SCT SLP200
cycle: 6

Station Type Date Time Source
KTCM TAF 2020/05/26 05:03 UTC NOAA

TAF KTCM 260500Z 2605/2711 21004KT 9999 FEW008 BKN060 QNH3009INS
TEMPO 2605/2608 VCSH BKN015 OVC030
BECMG 2611/2612 36006KT 9999 BKN015 OVC030 QNH3012INS
BECMG 2618/2619 02009KT 9999 BKN030 QNH3010INS
BECMG 2705/2706 03006KT 9999 FEW140 QNH3010INS TX21/2621Z TN11/2613Z

Example: see airport list